createdAt,value
2019-03-30T00:00:45.229Z,12.18
2019-03-30T00:03:14.284Z,11.83
2019-03-30T00:05:43.342Z,12.15
2019-03-30T00:08:12.392Z,10.78
2019-03-30T00:10:41.577Z,11.83
2019-03-30T00:13:10.627Z,10.75
2019-03-30T00:15:39.763Z,10.55
2019-03-30T00:18:08.845Z,9.73
2019-03-30T00:20:37.890Z,10.28
2019-03-30T00:23:07.032Z,10.38
2019-03-30T00:25:36.140Z,10.25
2019-03-30T00:28:05.275Z,9.80
2019-03-30T00:30:34.340Z,9.65
2019-03-30T00:33:03.514Z,9.60
2019-03-30T00:35:32.692Z,10.53
2019-03-30T00:38:01.711Z,9.58
2019-03-30T00:40:30.779Z,9.83
2019-03-30T00:42:59.822Z,10.25
2019-03-30T00:45:28.888Z,8.73
2019-03-30T00:47:58.061Z,9.15
2019-03-30T00:50:27.115Z,9.43
2019-03-30T00:52:56.147Z,10.32
2019-03-30T00:55:25.219Z,9.43
2019-03-30T00:57:54.278Z,9.45
2019-03-30T01:00:23.435Z,9.55
2019-03-30T01:02:52.512Z,9.53
2019-03-30T01:05:21.751Z,8.30
2019-03-30T01:07:50.808Z,9.95
2019-03-30T01:10:20.066Z,8.98
2019-03-30T01:12:49.243Z,9.15
2019-03-30T01:15:18.287Z,9.45
2019-03-30T01:17:47.689Z,9.53
2019-03-30T01:20:16.733Z,8.93
2019-03-30T01:22:45.904Z,9.25
2019-03-30T01:25:15.184Z,9.80
2019-03-30T01:27:44.344Z,9.30
2019-03-30T01:30:22.911Z,9.40
2019-03-30T01:32:44.870Z,9.95
2019-03-30T01:35:13.949Z,9.18
2019-03-30T01:37:43.154Z,9.88
2019-03-30T01:40:12.429Z,10.00
2019-03-30T01:42:41.570Z,10.60
2019-03-30T01:45:11.430Z,10.60
2019-03-30T01:47:40.516Z,10.20
2019-03-30T01:50:17.166Z,10.32
2019-03-30T01:52:41.207Z,10.28
2019-03-30T01:55:10.562Z,11.05
2019-03-30T01:57:39.629Z,10.35
2019-03-30T02:00:09.573Z,10.18
2019-03-30T02:02:38.908Z,9.80
2019-03-30T02:05:08.221Z,9.88
2019-03-30T02:07:37.383Z,11.10
2019-03-30T02:10:07.492Z,9.58
2019-03-30T02:12:36.706Z,9.35
2019-03-30T02:15:06.887Z,9.70
2019-03-30T02:17:35.944Z,9.00
2019-03-30T02:20:06.177Z,8.80
2019-03-30T02:22:35.345Z,8.70
2019-03-30T02:25:05.711Z,8.58
2019-03-30T02:27:34.869Z,9.08
2019-03-30T02:30:04.782Z,9.20
2019-03-30T02:32:33.821Z,9.25
2019-03-30T02:35:03.572Z,9.50
2019-03-30T02:37:33.019Z,8.58
2019-03-30T02:40:02.320Z,9.98
2019-03-30T02:42:31.371Z,8.58
2019-03-30T02:45:00.563Z,9.45
2019-03-30T02:47:29.632Z,10.08
2019-03-30T02:49:58.710Z,9.55
2019-03-30T02:52:27.796Z,9.75
2019-03-30T02:54:56.928Z,9.03
2019-03-30T02:57:26.002Z,9.30
2019-03-30T02:59:55.200Z,10.13
2019-03-30T03:02:24.253Z,9.85
2019-03-30T03:04:53.315Z,9.88
2019-03-30T03:07:22.598Z,10.85
2019-03-30T03:09:52.420Z,10.80
2019-03-30T03:12:21.521Z,11.25
2019-03-30T03:14:50.781Z,10.38
2019-03-30T03:17:20.215Z,11.80
2019-03-30T03:19:49.244Z,11.60
2019-03-30T03:22:18.459Z,11.33
2019-03-30T03:24:47.522Z,12.03
2019-03-30T03:27:16.618Z,10.85
2019-03-30T03:29:46.021Z,12.10
2019-03-30T03:32:15.072Z,17.15
2019-03-30T03:34:44.220Z,23.07
2019-03-30T03:37:13.520Z,11.83
2019-03-30T03:39:42.682Z,19.73
2019-03-30T03:42:11.837Z,21.00
2019-03-30T03:44:41.167Z,18.07
2019-03-30T03:47:10.337Z,16.55
2019-03-30T03:49:39.580Z,14.58
2019-03-30T03:52:08.873Z,12.33
2019-03-30T03:54:38.001Z,12.33
2019-03-30T03:57:10.909Z,11.00
2019-03-30T03:59:41.413Z,12.13
2019-03-30T04:02:13.289Z,12.28
2019-03-30T04:04:47.274Z,12.10
2019-03-30T04:07:19.692Z,11.93
2019-03-30T04:09:50.876Z,11.88
2019-03-30T04:12:22.197Z,11.85
2019-03-30T04:14:51.658Z,11.30
2019-03-30T04:17:20.926Z,11.55
2019-03-30T04:19:50.200Z,11.80
2019-03-30T04:22:19.283Z,11.65
2019-03-30T04:24:48.357Z,11.50
2019-03-30T04:27:17.409Z,11.90
2019-03-30T04:29:46.794Z,12.00
2019-03-30T04:32:15.905Z,11.35
2019-03-30T04:34:45.145Z,11.53
2019-03-30T04:37:14.235Z,12.25
2019-03-30T04:39:43.385Z,11.68
2019-03-30T04:42:12.602Z,12.15
2019-03-30T04:44:41.664Z,12.65
2019-03-30T04:47:10.731Z,11.78
2019-03-30T04:49:39.871Z,12.03
2019-03-30T04:52:08.971Z,12.68
2019-03-30T04:54:37.995Z,11.15
2019-03-30T04:57:07.031Z,12.07
2019-03-30T04:59:36.105Z,12.28
2019-03-30T05:02:05.408Z,12.68
2019-03-30T05:04:34.600Z,13.40
2019-03-30T05:07:03.678Z,17.90
2019-03-30T05:09:32.939Z,30.80
2019-03-30T05:12:02.153Z,14.78
2019-03-30T05:14:31.229Z,13.75
2019-03-30T05:17:00.255Z,13.62
2019-03-30T05:19:29.305Z,14.83
2019-03-30T05:22:11.389Z,19.42
2019-03-30T05:24:29.515Z,21.00
2019-03-30T05:26:58.670Z,13.40
2019-03-30T05:29:27.734Z,13.55
2019-03-30T05:31:56.763Z,14.55
2019-03-30T05:34:25.824Z,13.03
2019-03-30T05:36:54.862Z,13.32
2019-03-30T05:39:24.007Z,13.58
2019-03-30T05:41:53.088Z,14.40
2019-03-30T05:44:22.216Z,14.85
2019-03-30T05:46:51.253Z,13.35
2019-03-30T05:49:20.328Z,14.03
2019-03-30T05:51:49.484Z,13.60
2019-03-30T05:54:18.539Z,13.32
2019-03-30T05:56:47.602Z,12.43
2019-03-30T05:59:16.705Z,13.08
2019-03-30T06:01:45.854Z,12.35
2019-03-30T06:04:14.916Z,12.37
2019-03-30T06:06:44.149Z,14.03
2019-03-30T06:09:13.203Z,19.30
2019-03-30T06:11:42.352Z,12.33
2019-03-30T06:14:11.513Z,13.98
2019-03-30T06:16:40.781Z,12.58
2019-03-30T06:19:09.956Z,11.65
2019-03-30T06:24:19.339Z,10.45
2019-03-30T06:26:48.618Z,10.58
2019-03-30T06:29:17.715Z,10.23
2019-03-30T06:31:47.008Z,10.70
2019-03-30T06:34:16.119Z,11.25
2019-03-30T06:36:45.199Z,12.28
2019-03-30T06:39:14.554Z,11.12
2019-03-30T06:41:43.862Z,10.78
2019-03-30T06:44:13.156Z,9.38
2019-03-30T06:46:42.248Z,9.83
2019-03-30T06:49:11.460Z,9.75
2019-03-30T06:51:40.743Z,9.63
2019-03-30T06:54:09.954Z,9.63
2019-03-30T06:56:39.144Z,9.55
2019-03-30T06:59:08.452Z,8.80
2019-03-30T07:01:38.153Z,9.40
2019-03-30T07:04:11.046Z,8.55
2019-03-30T07:06:38.958Z,9.13
2019-03-30T07:09:08.087Z,9.03
2019-03-30T07:11:41.448Z,8.53
2019-03-30T07:14:10.840Z,9.50
2019-03-30T07:16:41.319Z,9.38
2019-03-30T07:19:11.634Z,8.23
2019-03-30T07:21:40.825Z,8.93
2019-03-30T07:24:09.914Z,8.93
2019-03-30T07:26:39.402Z,9.68
2019-03-30T07:29:08.700Z,8.28
2019-03-30T07:31:37.891Z,8.55
2019-03-30T07:34:07.109Z,8.40
2019-03-30T07:36:36.242Z,8.28
2019-03-30T07:39:05.545Z,8.35
2019-03-30T07:41:34.639Z,8.60
2019-03-30T07:44:03.818Z,9.28
2019-03-30T07:46:32.911Z,8.48
2019-03-30T07:49:02.231Z,8.70
2019-03-30T07:51:33.461Z,8.38
2019-03-30T07:54:02.757Z,8.95
2019-03-30T07:56:31.854Z,9.25
2019-03-30T07:59:01.168Z,8.23
2019-03-30T08:01:30.495Z,9.00
2019-03-30T08:03:59.795Z,8.15
2019-03-30T08:06:29.089Z,8.00
2019-03-30T08:08:58.199Z,8.58
2019-03-30T08:11:27.492Z,8.00
2019-03-30T08:13:56.619Z,8.33
2019-03-30T08:16:25.904Z,8.00
2019-03-30T08:18:54.969Z,8.95
2019-03-30T08:21:24.076Z,8.63
2019-03-30T08:23:53.303Z,7.47
2019-03-30T08:26:22.504Z,8.78
2019-03-30T08:28:51.792Z,9.10
2019-03-30T08:31:21.106Z,12.05
2019-03-30T08:33:50.272Z,8.20
2019-03-30T08:36:19.454Z,7.55
2019-03-30T08:38:48.642Z,11.55
2019-03-30T08:41:17.927Z,7.60
2019-03-30T08:43:47.003Z,7.55
2019-03-30T08:46:16.206Z,7.17
2019-03-30T08:48:45.390Z,7.22
2019-03-30T08:51:14.583Z,7.20
2019-03-30T08:53:53.972Z,6.78
2019-03-30T08:56:14.874Z,7.53
2019-03-30T08:58:44.126Z,9.15
2019-03-30T09:01:13.464Z,6.90
2019-03-30T09:03:42.640Z,6.60
2019-03-30T09:06:11.831Z,6.85
2019-03-30T09:08:40.946Z,7.37
2019-03-30T09:11:10.264Z,7.30
2019-03-30T09:13:39.459Z,6.72
2019-03-30T09:16:08.854Z,6.47
2019-03-30T09:18:38.105Z,6.60
2019-03-30T09:21:07.399Z,6.83
2019-03-30T09:23:36.737Z,7.40
2019-03-30T09:26:06.026Z,7.75
2019-03-30T09:28:35.181Z,5.25
2019-03-30T09:31:04.526Z,6.53
2019-03-30T09:33:33.809Z,6.03
2019-03-30T09:36:03.104Z,7.12
2019-03-30T09:38:32.328Z,6.22
2019-03-30T09:41:01.528Z,6.85
2019-03-30T09:43:30.703Z,6.53
2019-03-30T09:46:00.048Z,5.60
2019-03-30T09:48:29.257Z,5.53
2019-03-30T09:50:58.558Z,5.97
2019-03-30T09:53:27.862Z,5.58
2019-03-30T09:55:57.037Z,5.83
2019-03-30T09:58:26.239Z,5.33
2019-03-30T10:00:55.452Z,5.85
2019-03-30T10:03:24.561Z,6.30
2019-03-30T10:05:53.645Z,5.30
2019-03-30T10:08:22.967Z,6.20
2019-03-30T10:10:52.162Z,5.42
2019-03-30T10:13:21.486Z,6.08
2019-03-30T10:15:50.745Z,6.40
2019-03-30T10:18:19.883Z,6.25
2019-03-30T10:20:49.071Z,6.37
2019-03-30T10:23:18.451Z,5.83
2019-03-30T10:25:47.645Z,6.55
2019-03-30T10:28:16.859Z,6.33
2019-03-30T10:30:46.244Z,6.90
2019-03-30T10:33:15.323Z,6.45
2019-03-30T10:35:44.517Z,7.47
2019-03-30T10:38:13.728Z,7.08
2019-03-30T10:40:42.917Z,7.90
2019-03-30T10:43:12.237Z,6.95
2019-03-30T10:45:41.714Z,6.33
2019-03-30T10:48:11.111Z,7.50
2019-03-30T10:50:40.438Z,6.78
2019-03-30T10:53:09.640Z,8.85
2019-03-30T10:55:38.842Z,7.58
2019-03-30T10:58:08.089Z,7.50
2019-03-30T11:00:39.413Z,7.65
2019-03-30T11:03:08.672Z,8.33
2019-03-30T11:05:37.999Z,7.22
2019-03-30T11:08:07.272Z,7.83
2019-03-30T11:10:36.580Z,10.40
2019-03-30T11:13:05.813Z,7.50
2019-03-30T11:15:35.124Z,8.15
2019-03-30T11:18:04.414Z,8.78
2019-03-30T11:20:33.722Z,8.20
2019-03-30T11:23:03.068Z,6.35
2019-03-30T11:25:32.393Z,7.47
2019-03-30T11:28:01.764Z,6.40
2019-03-30T11:30:30.874Z,6.08
2019-03-30T11:33:00.078Z,6.30
2019-03-30T11:35:29.356Z,4.55
2019-03-30T11:37:58.545Z,6.47
2019-03-30T11:40:27.758Z,6.22
2019-03-30T11:42:57.249Z,6.17
2019-03-30T11:45:26.449Z,6.05
2019-03-30T11:47:55.780Z,6.58
2019-03-30T11:50:25.080Z,7.00
2019-03-30T11:52:54.274Z,6.62
2019-03-30T11:55:23.477Z,6.60
2019-03-30T11:57:52.580Z,6.45
2019-03-30T12:00:21.906Z,6.08
2019-03-30T12:02:51.212Z,6.47
2019-03-30T12:05:20.568Z,6.65
2019-03-30T12:07:49.777Z,6.17
2019-03-30T12:10:19.104Z,6.37
2019-03-30T12:12:48.413Z,8.40
2019-03-30T12:15:17.707Z,6.33
2019-03-30T12:17:47.023Z,6.62
2019-03-30T12:20:16.330Z,6.70
2019-03-30T12:22:45.537Z,7.90
2019-03-30T12:25:14.900Z,7.00
2019-03-30T12:27:44.252Z,7.15
2019-03-30T12:30:13.663Z,6.62
2019-03-30T12:32:42.988Z,7.40
2019-03-30T12:35:12.632Z,7.65
2019-03-30T12:37:41.938Z,7.33
2019-03-30T12:40:13.186Z,6.97
2019-03-30T12:42:42.523Z,7.47
2019-03-30T12:45:12.938Z,7.60
2019-03-30T12:47:42.288Z,7.67
2019-03-30T12:50:11.716Z,7.47
2019-03-30T12:52:40.950Z,7.67
2019-03-30T12:55:10.339Z,7.45
2019-03-30T12:57:39.897Z,7.87
2019-03-30T13:00:09.362Z,8.03
2019-03-30T13:02:38.581Z,7.15
2019-03-30T13:05:07.877Z,6.85
2019-03-30T13:07:37.032Z,5.92
2019-03-30T13:10:07.107Z,6.72
2019-03-30T13:12:36.331Z,6.08
2019-03-30T13:15:08.118Z,8.18
2019-03-30T13:17:37.663Z,5.47
2019-03-30T13:20:07.383Z,8.45
2019-03-30T13:22:36.736Z,6.75
2019-03-30T13:25:06.167Z,6.33
2019-03-30T13:27:35.613Z,6.10
2019-03-30T13:30:06.190Z,6.60
2019-03-30T13:32:35.550Z,5.78
2019-03-30T13:35:05.118Z,6.10
2019-03-30T13:37:34.330Z,5.80
2019-03-30T13:40:04.403Z,5.80
2019-03-30T13:42:33.815Z,6.17
2019-03-30T13:45:04.328Z,5.50
2019-03-30T13:47:33.555Z,6.10
2019-03-30T13:50:03.330Z,5.72
2019-03-30T13:52:32.485Z,6.25
2019-03-30T13:55:01.782Z,6.22
2019-03-30T13:57:31.106Z,6.37
2019-03-30T14:00:00.402Z,6.47
2019-03-30T14:02:29.540Z,6.55
2019-03-30T14:04:58.785Z,7.28
2019-03-30T14:07:27.894Z,7.75
2019-03-30T14:09:57.397Z,8.43
2019-03-30T14:12:26.601Z,9.08
2019-03-30T14:14:55.846Z,7.33
2019-03-30T14:17:25.084Z,7.78
2019-03-30T14:19:54.290Z,7.50
2019-03-30T14:22:23.608Z,8.60
2019-03-30T14:24:52.928Z,8.33
2019-03-30T14:27:22.538Z,8.10
2019-03-30T14:29:54.305Z,7.28
2019-03-30T14:32:22.923Z,7.17
2019-03-30T14:34:52.133Z,7.53
2019-03-30T14:37:21.370Z,7.47
2019-03-30T14:39:50.589Z,6.83
2019-03-30T14:42:19.708Z,7.03
2019-03-30T14:44:49.032Z,6.45
2019-03-30T14:47:18.264Z,7.42
2019-03-30T14:49:47.600Z,7.20
2019-03-30T14:52:16.720Z,8.13
2019-03-30T14:54:52.582Z,7.85
2019-03-30T14:57:16.947Z,6.70
2019-03-30T14:59:46.171Z,8.65
2019-03-30T15:02:15.420Z,7.30
2019-03-30T15:04:44.638Z,7.58
2019-03-30T15:07:13.935Z,7.58
2019-03-30T15:09:43.168Z,7.92
2019-03-30T15:12:12.485Z,8.18
2019-03-30T15:14:41.595Z,8.50
2019-03-30T15:17:10.911Z,8.93
2019-03-30T15:19:40.073Z,7.67
2019-03-30T15:22:09.301Z,7.62
2019-03-30T15:24:38.570Z,7.33
2019-03-30T15:27:07.768Z,8.98
2019-03-30T15:29:36.987Z,7.47
2019-03-30T15:32:06.212Z,10.60
2019-03-30T15:34:35.424Z,9.53
2019-03-30T15:37:04.630Z,12.78
2019-03-30T15:39:33.977Z,8.85
2019-03-30T15:42:03.316Z,8.28
2019-03-30T15:44:32.440Z,6.42
2019-03-30T15:47:01.661Z,6.85
2019-03-30T15:49:30.874Z,6.47
2019-03-30T15:52:13.380Z,6.50
2019-03-30T15:54:31.306Z,7.97
2019-03-30T15:57:13.477Z,7.75
2019-03-30T15:59:31.821Z,7.37
2019-03-30T16:02:01.160Z,7.08
2019-03-30T16:04:30.494Z,7.40
2019-03-30T16:06:59.829Z,8.40
2019-03-30T16:09:29.155Z,7.90
2019-03-30T16:11:58.444Z,10.93
2019-03-30T16:14:27.658Z,9.55
2019-03-30T16:16:56.881Z,7.37
2019-03-30T16:19:25.999Z,7.70
2019-03-30T16:21:55.221Z,7.30
2019-03-30T16:24:24.434Z,11.33
2019-03-30T16:26:53.830Z,9.70
2019-03-30T16:29:23.042Z,12.25
2019-03-30T16:31:52.166Z,7.65
2019-03-30T16:34:21.374Z,7.80
2019-03-30T16:36:50.574Z,8.65
2019-03-30T16:39:19.745Z,8.53
2019-03-30T16:41:49.024Z,8.13
2019-03-30T16:44:18.254Z,8.15
2019-03-30T16:46:47.476Z,8.70
2019-03-30T16:49:16.568Z,19.17
2019-03-30T16:51:45.780Z,10.40
2019-03-30T16:54:14.903Z,8.85
2019-03-30T16:56:43.996Z,8.25
2019-03-30T16:59:14.057Z,9.23
2019-03-30T17:01:43.417Z,8.53
2019-03-30T17:04:12.646Z,10.80
2019-03-30T17:06:41.852Z,10.93
2019-03-30T17:09:11.098Z,14.23
2019-03-30T17:11:40.411Z,11.60
2019-03-30T17:14:09.634Z,9.85
2019-03-30T17:16:38.863Z,9.40
2019-03-30T17:19:08.082Z,10.30
2019-03-30T17:21:37.383Z,9.05
2019-03-30T17:24:06.731Z,9.60
2019-03-30T17:26:36.214Z,10.35
2019-03-30T17:29:05.489Z,13.43
2019-03-30T17:31:34.896Z,10.03
2019-03-30T17:34:04.400Z,10.82
2019-03-30T17:36:33.607Z,14.28
2019-03-30T17:39:06.309Z,10.88
2019-03-30T17:41:35.437Z,13.72
2019-03-30T17:44:04.587Z,12.05
2019-03-30T17:46:33.671Z,11.80
2019-03-30T17:49:02.883Z,10.45
2019-03-30T17:51:32.251Z,11.18
2019-03-30T17:54:01.363Z,11.22
2019-03-30T17:56:30.475Z,11.15
2019-03-30T17:58:59.632Z,10.70
2019-03-30T18:01:28.727Z,12.18
2019-03-30T18:03:58.067Z,11.70
2019-03-30T18:06:27.258Z,10.60
2019-03-30T18:08:56.352Z,11.12
2019-03-30T18:11:25.570Z,10.70
2019-03-30T18:13:55.158Z,12.88
2019-03-30T18:16:24.363Z,14.05
2019-03-30T18:18:53.478Z,15.45
2019-03-30T18:21:22.739Z,15.48
2019-03-30T18:23:52.514Z,14.38
2019-03-30T18:26:21.893Z,14.80
2019-03-30T18:28:51.546Z,15.25
2019-03-30T18:31:20.882Z,18.60
2019-03-30T18:33:50.419Z,17.67
2019-03-30T18:36:19.651Z,14.58
2019-03-30T18:38:49.151Z,14.75
2019-03-30T18:41:18.430Z,14.07
2019-03-30T18:43:48.332Z,14.43
2019-03-30T18:46:17.757Z,14.78
2019-03-30T18:48:46.961Z,15.08
2019-03-30T18:51:16.582Z,13.85
2019-03-30T18:53:45.975Z,16.85
2019-03-30T18:56:15.284Z,16.07
2019-03-30T18:58:44.590Z,19.25
2019-03-30T19:01:13.688Z,17.17
2019-03-30T19:03:42.763Z,16.25
2019-03-30T19:06:12.030Z,19.17
2019-03-30T19:08:41.116Z,17.48
2019-03-30T19:11:10.360Z,16.90
2019-03-30T19:13:39.633Z,16.27
2019-03-30T19:16:08.929Z,18.02
2019-03-30T19:18:38.023Z,19.50
2019-03-30T19:21:07.372Z,16.90
2019-03-30T19:23:36.455Z,16.12
2019-03-30T19:26:05.776Z,16.00
2019-03-30T19:28:35.020Z,16.45
2019-03-30T19:31:04.372Z,15.72
2019-03-30T19:33:33.624Z,14.55
2019-03-30T19:36:02.960Z,14.60
2019-03-30T19:38:32.145Z,13.68
2019-03-30T19:41:01.361Z,17.90
2019-03-30T19:43:30.555Z,17.42
2019-03-30T19:45:59.806Z,14.40
2019-03-30T19:48:29.124Z,17.52
2019-03-30T19:50:58.347Z,15.35
2019-03-30T19:53:27.647Z,18.37
2019-03-30T19:55:56.849Z,14.47
2019-03-30T19:58:26.073Z,16.62
2019-03-30T20:00:55.381Z,16.67
2019-03-30T20:03:24.575Z,17.30
2019-03-30T20:05:53.928Z,32.83
2019-03-30T20:08:23.263Z,17.07
2019-03-30T20:10:52.568Z,21.97
2019-03-30T20:13:21.798Z,18.10
2019-03-30T20:15:51.028Z,16.85
2019-03-30T20:18:20.643Z,17.12
2019-03-30T20:20:49.776Z,16.45
2019-03-30T20:23:18.871Z,17.48
2019-03-30T20:25:48.181Z,17.62
2019-03-30T20:28:17.482Z,19.07
2019-03-30T20:30:46.839Z,17.27
2019-03-30T20:33:16.245Z,19.35
2019-03-30T20:35:45.471Z,18.95
2019-03-30T20:38:14.812Z,17.25
2019-03-30T20:40:44.099Z,20.02
2019-03-30T20:43:13.456Z,18.50
2019-03-30T20:45:42.641Z,20.02
2019-03-30T20:48:11.828Z,19.77
2019-03-30T20:50:40.916Z,20.12
2019-03-30T20:53:10.280Z,19.60
2019-03-30T20:55:39.375Z,19.07
2019-03-30T20:58:08.675Z,19.12
2019-03-30T21:00:37.894Z,21.75
2019-03-30T21:03:07.063Z,18.85
2019-03-30T21:05:36.466Z,18.98
2019-03-30T21:08:05.664Z,19.85
2019-03-30T21:10:35.279Z,19.32
2019-03-30T21:13:04.611Z,18.15
2019-03-30T21:15:33.831Z,19.50
2019-03-30T21:18:03.662Z,19.00
2019-03-30T21:20:33.145Z,18.42
2019-03-30T21:23:02.415Z,19.07
2019-03-30T21:25:31.595Z,18.82
2019-03-30T21:28:00.805Z,19.60
2019-03-30T21:30:30.084Z,18.35
2019-03-30T21:32:59.302Z,18.87
2019-03-30T21:35:28.493Z,20.30
2019-03-30T21:37:58.728Z,20.50
2019-03-30T21:40:28.266Z,21.02
2019-03-30T21:42:57.382Z,21.55
2019-03-30T21:45:26.548Z,20.52
2019-03-30T21:47:55.733Z,21.35
2019-03-30T21:50:25.131Z,21.02
2019-03-30T21:52:54.224Z,19.77
2019-03-30T21:55:23.297Z,20.48
2019-03-30T21:57:52.513Z,22.35
2019-03-30T22:00:47.038Z,20.48
2019-03-30T22:05:45.363Z,20.55
2019-03-30T22:08:17.223Z,20.80
2019-03-30T22:10:45.732Z,21.07
2019-03-30T22:13:15.191Z,21.00
2019-03-30T22:15:44.371Z,22.20
2019-03-30T22:18:13.632Z,21.20
2019-03-30T22:20:42.870Z,21.77
2019-03-30T22:23:12.230Z,21.45
2019-03-30T22:25:41.824Z,26.68
2019-03-30T22:28:11.062Z,22.75
2019-03-30T22:30:40.455Z,22.62
2019-03-30T22:33:09.714Z,21.80
2019-03-30T22:35:38.814Z,22.00
2019-03-30T22:38:07.953Z,22.02
2019-03-30T22:40:37.154Z,22.98
2019-03-30T22:43:06.338Z,22.27
2019-03-30T22:45:35.588Z,23.62
2019-03-30T22:48:05.041Z,22.93
2019-03-30T22:50:34.681Z,21.23
2019-03-30T22:53:04.058Z,23.00
2019-03-30T22:55:33.257Z,22.37
2019-03-30T22:58:02.573Z,22.32
2019-03-30T23:00:55.039Z,23.35
2019-03-30T23:03:24.272Z,22.13
2019-03-30T23:05:53.551Z,22.27
2019-03-30T23:08:22.674Z,23.42
2019-03-30T23:10:52.013Z,22.30
2019-03-30T23:13:21.114Z,23.22
2019-03-30T23:15:50.463Z,23.12
2019-03-30T23:18:19.681Z,23.65
2019-03-30T23:20:48.866Z,23.70
2019-03-30T23:23:17.967Z,23.67
2019-03-30T23:25:47.232Z,23.38
2019-03-30T23:28:16.480Z,23.83
2019-03-30T23:30:54.131Z,23.05
2019-03-30T23:33:17.158Z,23.38
2019-03-30T23:35:46.397Z,24.12
2019-03-30T23:38:15.677Z,25.27
2019-03-30T23:40:45.022Z,25.90
2019-03-30T23:43:14.164Z,24.10
2019-03-30T23:45:43.339Z,24.55
2019-03-30T23:48:12.471Z,25.35
2019-03-30T23:50:41.783Z,25.12
2019-03-30T23:53:10.878Z,24.77
2019-03-30T23:55:40.276Z,26.40
2019-03-30T23:58:09.712Z,26.95
